Login to view products. 
Tuesday, February 28, 2017 (00:57 UTC)
Al Maktoum International Airport
Last Updated: 28-Feb-2017 (00:56Z)
Wind Dir/Speed: SSE at 01 kt
Temperature: 13.7°C
Rel. Humidity: 83 %
Pressure: 1019.2 hPa
Visibility: 8000 m
  • METAR OMDW 280030Z 15003KT 8000 NSC 14/11 Q1018 BECMG 4000 HZ
  • TAF OMDW 272256Z 2800/0106 15005KT 8000 NSC PROB30 2800/2805 3000 BR BECMG 2807/2809 33012KT BECMG 2817/2819 VRB02KT PROB30 2822/0105 0100 FG VV///=